Time;durP1;ratioP1;P1;durP2;ratioP2;P2;SDS_P1;SDS_P2;PMS_P1;PMS_P2;Temp;Humidity;BMP_temperature;BMP_pressure;BME280_temperature;BME280_humidity;BME280_pressure;Samples;Min_cycle;Max_cycle;Signal;HPM_P1;HPM_P2
2022/05/16 00:00:11;;;;;;;11.48;3.95;;;;;;;16.93;50.37;101332.94;4987548;28;20041;-61
2022/05/16 00:02:36;;;;;;;13.63;4.40;;;;;;;16.93;50.37;101332.94;4986784;28;20053;-61
2022/05/16 00:05:02;;;;;;;10.20;3.85;;;;;;;16.94;50.43;101331.97;4981075;28;20367;-61
2022/05/16 00:07:28;;;;;;;11.73;3.85;;;;;;;16.82;50.66;101320.09;5002720;28;20073;-61
2022/05/16 00:09:53;;;;;;;11.25;4.03;;;;;;;16.82;50.67;101320.09;4997316;28;20512;-61
2022/05/16 00:12:18;;;;;;;10.80;4.18;;;;;;;16.80;50.60;101316.78;4988310;28;20026;-61
2022/05/16 00:14:45;;;;;;;10.70;3.88;;;;;;;16.78;50.82;101307.44;4995520;28;20414;-61
2022/05/16 00:17:12;;;;;;;11.43;4.10;;;;;;;16.70;50.81;101301.19;4981634;28;20037;-61
2022/05/16 00:19:39;;;;;;;11.63;3.63;;;;;;;16.66;51.67;101288.50;4986627;28;20037;-61
2022/05/16 00:22:05;;;;;;;9.32;3.42;;;;;;;16.63;51.13;101294.88;4987179;28;20066;-61
2022/05/16 00:24:30;;;;;;;11.35;3.88;;;;;;;16.70;51.27;101300.34;4987807;28;20033;-61
2022/05/16 00:26:57;;;;;;;9.90;3.67;;;;;;;16.67;51.29;101301.44;4986869;28;20554;-61
2022/05/16 00:29:22;;;;;;;11.30;3.90;;;;;;;16.66;51.08;101304.22;4986819;28;20057;-61
2022/05/16 00:31:48;;;;;;;12.57;3.92;;;;;;;16.68;51.09;101295.22;4986839;28;20052;-62
2022/05/16 00:34:15;;;;;;;8.80;3.83;;;;;;;16.55;51.29;101296.63;4986221;28;20022;-61
2022/05/16 00:36:43;;;;;;;11.40;3.72;;;;;;;16.62;51.13;101293.22;4987134;28;20027;-61
2022/05/16 00:39:09;;;;;;;10.20;3.67;;;;;;;16.58;51.50;101288.47;4986708;28;20042;-61
2022/05/16 00:41:34;;;;;;;13.05;3.92;;;;;;;16.57;51.52;101284.19;5006354;28;20041;-63
2022/05/16 00:44:00;;;;;;;10.30;3.80;;;;;;;16.44;51.84;101274.94;5006585;28;20192;-61
2022/05/16 00:46:31;;;;;;;9.88;3.80;;;;;;;16.44;51.91;101285.41;5006138;28;20065;-61
2022/05/16 00:48:59;;;;;;;9.93;3.70;;;;;;;16.40;51.89;101276.22;5003733;28;20030;-60
2022/05/16 00:51:32;;;;;;;10.20;3.78;;;;;;;16.39;51.95;101277.19;4986102;28;20043;-61
2022/05/16 00:54:08;;;;;;;15.32;4.28;;;;;;;16.28;52.43;101274.78;4979121;28;20070;-61
2022/05/16 00:56:34;;;;;;;11.02;4.07;;;;;;;16.27;52.88;101274.97;4986491;28;20026;-63
2022/05/16 00:59:00;;;;;;;11.07;4.43;;;;;;;16.23;52.78;101276.22;4986840;28;20313;-61
2022/05/16 01:06:56;;;;;;;13.40;4.30;;;;;;;16.22;52.94;101275.41;4986315;28;20045;-62
2022/05/16 01:09:22;;;;;;;11.07;3.72;;;;;;;16.16;52.97;101262.91;4968406;28;20172;-61
2022/05/16 01:11:47;;;;;;;10.23;4.22;;;;;;;16.12;53.65;101264.22;4986618;28;20093;-61
2022/05/16 01:14:44;;;;;;;11.52;4.00;;;;;;;16.22;52.86;101274.59;4990216;28;20034;-61
2022/05/16 01:17:11;;;;;;;9.65;4.20;;;;;;;16.11;53.25;101273.00;4969030;28;20023;-67
2022/05/16 01:19:36;;;;;;;11.38;4.50;;;;;;;16.07;53.12;101269.91;4969218;28;20379;-61
2022/05/16 01:22:09;;;;;;;9.98;4.30;;;;;;;15.97;53.77;101273.56;4985757;28;20481;-62
2022/05/16 01:24:35;;;;;;;10.07;4.20;;;;;;;16.10;53.34;101258.28;4985977;28;20034;-61
2022/05/16 01:27:00;;;;;;;9.82;4.10;;;;;;;16.08;53.18;101260.25;4986044;28;20041;-64
2022/05/16 01:29:25;;;;;;;11.70;4.30;;;;;;;15.90;53.62;101250.59;4988776;28;20034;-61
2022/05/16 01:31:51;;;;;;;9.45;3.83;;;;;;;15.98;53.42;101251.66;4990206;28;20069;-60
2022/05/16 01:34:16;;;;;;;9.75;4.10;;;;;;;15.93;53.51;101250.28;4990134;28;20057;-61
2022/05/16 01:36:41;;;;;;;11.00;4.05;;;;;;;15.92;54.14;101253.88;4990161;28;20459;-61
2022/05/16 01:39:07;;;;;;;9.52;4.05;;;;;;;15.96;53.80;101248.38;4988766;28;20034;-61
2022/05/16 01:41:32;;;;;;;12.07;4.47;;;;;;;15.99;54.04;101253.28;4989781;28;20055;-61
2022/05/16 01:44:00;;;;;;;11.23;4.35;;;;;;;15.76;54.57;101243.25;4989755;28;20038;-62
2022/05/16 01:46:31;;;;;;;10.63;4.70;;;;;;;15.81;54.82;101251.50;4972000;28;20030;-61
2022/05/16 01:48:57;;;;;;;10.45;4.10;;;;;;;15.80;54.55;101242.00;4989661;28;20042;-61
2022/05/16 01:51:22;;;;;;;9.85;3.95;;;;;;;15.76;54.92;101238.03;4989063;28;20022;-60
2022/05/16 01:53:48;;;;;;;11.45;4.43;;;;;;;15.71;54.96;101250.72;4954421;28;20138;-63
2022/05/16 01:56:14;;;;;;;12.27;4.25;;;;;;;15.71;55.00;101245.50;4981885;28;20248;-63
2022/05/16 01:58:42;;;;;;;10.00;4.20;;;;;;;15.73;54.74;101238.34;4989689;28;20272;-61
2022/05/16 02:01:11;;;;;;;;;;;;;;;15.83;53.34;101231.25;4971823;28;20442;-64
2022/05/16 02:03:43;;;;;;;10.63;4.38;;;;;;;15.72;55.16;101244.56;4989417;28;19972;-61
2022/05/16 02:06:08;;;;;;;11.65;4.50;;;;;;;15.63;55.48;101234.97;4989180;28;20070;-65
2022/05/16 02:08:34;;;;;;;9.35;4.50;;;;;;;15.61;55.85;101229.03;4989549;28;20057;-60
2022/05/16 02:11:01;;;;;;;12.00;4.30;;;;;;;15.52;55.91;101214.22;4988042;28;20124;-60
2022/05/16 02:13:28;;;;;;;10.73;4.35;;;;;;;15.51;56.07;101217.81;4973300;28;20419;-60
2022/05/16 02:15:53;;;;;;;11.10;4.40;;;;;;;15.46;55.57;101214.81;4998853;28;20383;-62
2022/05/16 02:18:19;;;;;;;11.27;4.60;;;;;;;15.47;55.61;101206.00;4988862;28;20026;-61
2022/05/16 02:20:45;;;;;;;9.32;4.45;;;;;;;15.48;55.71;101212.88;4989073;28;20096;-61
2022/05/16 02:25:56;;;;;;;10.15;4.30;;;;;;;15.40;56.28;101197.94;4988826;28;20033;-61
2022/05/16 02:28:22;;;;;;;10.18;4.50;;;;;;;15.37;56.39;101201.69;4980180;28;20085;-61
2022/05/16 02:30:48;;;;;;;13.32;4.80;;;;;;;15.39;56.18;101204.97;4971091;28;20036;-61
2022/05/16 02:33:16;;;;;;;11.63;4.55;;;;;;;15.37;56.63;101211.31;4971203;28;20022;-61
2022/05/16 02:35:43;;;;;;;8.53;4.37;;;;;;;15.41;56.75;101197.78;4971441;28;20454;-61
2022/05/16 02:38:09;;;;;;;11.07;4.60;;;;;;;15.42;56.26;101203.81;4971623;28;20030;-61
2022/05/16 02:40:36;;;;;;;9.05;4.50;;;;;;;15.35;56.32;101193.16;4987260;28;20038;-60
2022/05/16 02:43:02;;;;;;;11.23;4.80;;;;;;;15.44;56.04;101196.69;4988725;28;20522;-62
2022/05/16 02:45:29;;;;;;;13.05;4.60;;;;;;;15.45;56.25;101203.56;4988447;28;20030;-61
2022/05/16 02:47:55;;;;;;;9.32;4.45;;;;;;;15.50;56.50;101192.66;4989192;28;20038;-61
2022/05/16 02:50:23;;;;;;;9.93;4.50;;;;;;;15.45;56.46;101200.13;4970896;28;20037;-64
2022/05/16 02:52:49;;;;;;;10.23;4.72;;;;;;;15.47;56.92;101200.78;4988583;28;20046;-64
2022/05/16 02:55:15;;;;;;;10.23;4.70;;;;;;;15.46;56.83;101188.69;4987701;28;20109;-61
2022/05/16 02:57:40;;;;;;;11.38;4.78;;;;;;;15.46;56.49;101178.22;4970912;28;20033;-63
2022/05/16 03:00:10;;;;;;;9.23;4.60;;;;;;;15.46;56.51;101184.28;4970636;28;20084;-61
2022/05/16 03:02:36;;;;;;;9.25;4.28;;;;;;;15.45;56.75;101187.03;4988348;28;20133;-61
2022/05/16 03:05:02;;;;;;;9.23;4.28;;;;;;;15.55;56.33;101187.81;4988464;28;20473;-61
2022/05/16 03:07:28;;;;;;;9.65;4.38;;;;;;;15.60;56.41;101180.34;4987931;28;20030;-61
2022/05/16 03:09:53;;;;;;;9.20;4.65;;;;;;;15.56;56.14;101174.56;4988235;28;20034;-66
2022/05/16 03:12:18;;;;;;;10.10;4.85;;;;;;;15.47;56.86;101174.63;4988221;28;20027;-60
2022/05/16 03:14:44;;;;;;;10.68;5.00;;;;;;;15.53;56.73;101164.41;5000589;28;20402;-61
2022/05/16 03:17:09;;;;;;;8.95;4.43;;;;;;;15.45;57.15;101166.13;5008063;28;20496;-60
2022/05/16 03:19:35;;;;;;;9.18;4.57;;;;;;;15.47;56.96;101169.41;5008000;28;20806;-60
2022/05/16 03:22:04;;;;;;;12.68;4.60;;;;;;;15.49;56.78;101157.84;4984890;28;20423;-62
2022/05/16 03:24:31;;;;;;;10.75;5.03;;;;;;;15.50;56.78;101164.72;4975647;28;20021;-65
2022/05/16 03:26:56;;;;;;;10.80;4.90;;;;;;;15.49;57.02;101162.25;4987242;28;20478;-65
2022/05/16 03:29:21;;;;;;;9.55;4.70;;;;;;;15.57;56.97;101155.31;4970321;28;20037;-66
2022/05/16 03:31:47;;;;;;;11.85;4.68;;;;;;;15.53;57.25;101160.97;4988193;28;20033;-62
2022/05/16 03:34:12;;;;;;;8.95;4.43;;;;;;;15.51;56.91;101149.84;4970013;28;20030;-61
2022/05/16 03:36:38;;;;;;;9.38;4.68;;;;;;;15.50;57.22;101153.44;4987148;28;20030;-62
2022/05/16 03:41:49;;;;;;;11.35;5.07;;;;;;;15.49;57.34;101154.41;4987060;28;20048;-61
2022/05/16 03:44:15;;;;;;;10.27;5.10;;;;;;;15.44;57.60;101148.81;4987055;28;20027;-60
2022/05/16 03:46:40;;;;;;;10.95;5.38;;;;;;;15.48;57.78;101155.38;4969407;28;20034;-61
2022/05/16 03:49:06;;;;;;;10.45;5.28;;;;;;;15.46;57.62;101146.84;4969394;28;20026;-61
2022/05/16 03:51:32;;;;;;;9.88;5.00;;;;;;;15.43;57.91;101152.41;4979149;28;20030;-62
2022/05/16 03:53:57;;;;;;;11.07;4.80;;;;;;;15.50;57.60;101158.66;4975266;28;20501;-61
2022/05/16 03:56:26;;;;;;;10.18;4.90;;;;;;;15.45;58.07;101168.75;4981180;28;20011;-60
2022/05/16 03:58:52;;;;;;;11.23;5.03;;;;;;;15.46;57.89;101152.91;4975108;28;20034;-61
2022/05/16 04:01:17;;;;;;;14.13;5.13;;;;;;;15.45;58.01;101166.13;4980884;28;20482;-62
2022/05/16 04:03:43;;;;;;;10.38;5.07;;;;;;;15.39;58.19;101163.13;4978365;28;20421;-62
2022/05/16 04:06:09;;;;;;;10.70;5.50;;;;;;;15.46;57.99;101159.94;4968796;28;20030;-61
2022/05/16 04:08:34;;;;;;;9.60;5.00;;;;;;;15.32;58.39;101148.22;4978427;28;20069;-61
2022/05/16 04:11:01;;;;;;;9.35;4.82;;;;;;;15.45;58.37;101166.13;4976706;28;20541;-60
2022/05/16 04:13:27;;;;;;;12.85;5.35;;;;;;;15.36;59.33;101163.41;4971885;28;20018;-61
2022/05/16 04:15:53;;;;;;;11.55;5.35;;;;;;;15.41;58.62;101166.41;4974605;28;20019;-61
2022/05/16 04:18:19;;;;;;;10.13;5.10;;;;;;;15.43;58.82;101168.09;4977571;28;20030;-60
2022/05/16 04:20:46;;;;;;;11.32;5.20;;;;;;;15.36;58.96;101163.41;4986585;28;20045;-60
2022/05/16 04:23:11;;;;;;;8.48;5.30;;;;;;;15.34;59.34;101156.72;4969330;28;20092;-61
2022/05/16 04:25:37;;;;;;;10.02;5.07;;;;;;;15.38;58.70;101161.50;4986897;28;20486;-60
2022/05/16 04:28:04;;;;;;;9.65;5.35;;;;;;;15.30;59.46;101155.34;4986519;28;20045;-60
2022/05/16 04:30:30;;;;;;;9.80;5.30;;;;;;;15.32;59.77;101161.28;4965497;28;20058;-60
2022/05/16 04:32:55;;;;;;;13.00;5.45;;;;;;;15.37;59.74;101167.69;4979710;28;20474;-60
2022/05/16 04:35:21;;;;;;;12.98;5.57;;;;;;;15.41;59.57;101155.97;4983284;28;20541;-61
2022/05/16 04:37:46;;;;;;;11.32;5.35;;;;;;;15.34;59.70;101159.31;4986409;28;20109;-61
2022/05/16 04:40:12;;;;;;;10.32;5.47;;;;;;;15.37;59.53;101153.81;4977133;28;20031;-60
2022/05/16 04:42:41;;;;;;;12.43;5.60;;;;;;;15.33;60.31;101162.91;4958830;28;20034;-61
2022/05/16 04:45:28;;;;;;;11.90;5.60;;;;;;;15.46;59.21;101168.59;4975820;28;20399;-60
2022/05/16 04:47:58;;;;;;;9.40;5.10;;;;;;;15.45;59.76;101166.94;4986394;28;20034;-61
2022/05/16 04:50:32;;;;;;;11.10;5.43;;;;;;;15.34;60.40;101159.31;4986272;28;20030;-61
2022/05/16 04:52:58;;;;;;;13.80;5.50;;;;;;;15.39;61.02;101170.97;4985660;28;20109;-61
2022/05/16 04:55:25;;;;;;;11.07;5.75;;;;;;;15.49;60.11;101177.94;4986245;28;20494;-61
2022/05/16 04:57:51;;;;;;;10.98;5.65;;;;;;;15.51;60.98;101182.03;4968957;28;20034;-61
2022/05/16 05:00:18;;;;;;;9.65;5.40;;;;;;;15.56;60.25;101174.56;4985950;28;20038;-61
2022/05/16 05:02:44;;;;;;;9.50;5.40;;;;;;;15.57;60.67;101172.78;4985885;28;20037;-61
2022/05/16 05:05:10;;;;;;;12.20;5.70;;;;;;;15.59;60.79;101181.28;4989240;28;20038;-61
2022/05/16 05:07:37;;;;;;;11.65;5.65;;;;;;;15.66;60.29;101174.53;4981250;28;20031;-61
2022/05/16 05:15:31;;;;;;;12.07;6.00;;;;;;;15.74;60.46;101173.78;5007722;28;20095;-63
2022/05/16 05:17:57;;;;;;;10.95;6.07;;;;;;;15.67;61.33;101168.34;5010214;28;20543;-61
2022/05/16 05:20:22;;;;;;;10.15;5.60;;;;;;;15.82;60.66;101182.50;4995788;28;20030;-61
2022/05/16 05:22:48;;;;;;;9.98;6.35;;;;;;;15.83;60.38;101176.34;4990193;28;20038;-63
2022/05/16 05:25:17;;;;;;;11.18;6.28;;;;;;;15.83;60.34;101176.34;4989852;28;20026;-61
2022/05/16 05:27:45;;;;;;;12.25;6.20;;;;;;;15.88;60.15;101179.28;4989553;28;20019;-61
2022/05/16 05:30:16;;;;;;;11.70;5.90;;;;;;;15.98;60.54;101168.75;4989736;28;20390;-61
2022/05/16 05:32:45;;;;;;;10.32;5.97;;;;;;;16.02;60.13;101158.81;4978273;28;20026;-61
2022/05/16 05:35:11;;;;;;;10.23;6.75;;;;;;;16.09;60.70;101165.88;4971431;28;20118;-62
2022/05/16 05:37:37;;;;;;;10.68;6.45;;;;;;;16.13;60.34;101167.25;4990225;28;20031;-61
2022/05/16 05:40:04;;;;;;;11.38;6.38;;;;;;;16.21;60.17;101163.84;4989650;28;20057;-64
2022/05/16 05:42:31;;;;;;;11.60;6.13;;;;;;;16.31;60.38;101164.56;4985462;28;20072;-61
2022/05/16 05:44:58;;;;;;;9.52;6.05;;;;;;;16.35;59.90;101158.06;4989623;28;20034;-62
2022/05/16 05:47:24;;;;;;;10.38;6.00;;;;;;;16.46;59.60;101168.28;4989261;28;20026;-62
2022/05/16 05:49:49;;;;;;;11.40;6.43;;;;;;;16.62;59.52;101182.41;4990089;28;20037;-61
2022/05/16 05:52:15;;;;;;;11.75;6.40;;;;;;;16.68;59.41;101176.53;4988685;28;20030;-64
2022/05/16 05:54:42;;;;;;;11.77;6.75;;;;;;;16.76;58.65;101173.19;4989342;28;20050;-61
2022/05/16 05:57:07;;;;;;;12.50;6.70;;;;;;;16.75;58.84;101167.13;4989637;28;20030;-60
2022/05/16 05:59:33;;;;;;;10.68;6.28;;;;;;;16.91;58.75;101176.84;4987008;28;20026;-61
2022/05/16 06:01:58;;;;;;;13.00;7.15;;;;;;;16.93;58.71;101178.34;4980121;28;20082;-63
2022/05/16 06:04:23;;;;;;;10.60;6.22;;;;;;;17.00;58.59;101170.66;4982687;28;20027;-61
2022/05/16 06:06:49;;;;;;;10.43;6.60;;;;;;;17.11;59.29;101166.94;4972071;28;20403;-61
2022/05/16 06:09:14;;;;;;;11.55;6.30;;;;;;;17.20;58.94;101186.94;4972628;28;20383;-61
2022/05/16 06:11:39;;;;;;;11.20;6.57;;;;;;;17.30;58.57;101186.81;4985429;28;20465;-62
2022/05/16 06:14:05;;;;;;;10.25;6.70;;;;;;;17.39;57.73;101191.91;4990999;28;20030;-62
2022/05/16 06:16:30;;;;;;;10.27;6.43;;;;;;;17.45;57.47;101198.31;4988845;28;20077;-61
2022/05/16 06:18:56;;;;;;;11.73;6.50;;;;;;;17.47;57.54;101194.53;4989313;28;20054;-61
2022/05/16 06:21:21;;;;;;;12.57;7.10;;;;;;;17.55;57.34;101195.53;4978870;28;20287;-61
2022/05/16 06:23:46;;;;;;;12.07;7.03;;;;;;;17.58;57.42;101192.59;4973077;28;20121;-64
2022/05/16 06:26:12;;;;;;;10.23;6.35;;;;;;;17.65;57.65;101197.03;4965310;28;20975;-63
2022/05/16 06:28:39;;;;;;;10.70;6.93;;;;;;;17.68;57.69;101190.66;4989147;28;20034;-61
2022/05/16 06:31:05;;;;;;;10.18;6.55;;;;;;;17.71;57.66;101200.81;4982093;28;20034;-61
2022/05/16 06:33:30;;;;;;;11.52;6.90;;;;;;;17.78;57.86;101197.41;4983400;28;20046;-65
2022/05/16 06:35:57;;;;;;;12.88;7.90;;;;;;;17.79;57.57;101187.75;4978646;28;20523;-64
2022/05/16 06:38:28;;;;;;;12.68;7.32;;;;;;;17.93;57.07;101194.94;4975218;28;20026;-65
2022/05/16 06:40:55;;;;;;;13.00;6.80;;;;;;;17.98;57.28;101200.53;4987822;28;20034;-61
2022/05/16 06:43:23;;;;;;;10.68;7.13;;;;;;;18.04;56.40;101207.75;4988839;28;20036;-62
2022/05/16 06:45:48;;;;;;;11.45;7.10;;;;;;;18.10;55.99;101215.94;4988859;28;20030;-62
2022/05/16 06:48:14;;;;;;;12.32;7.38;;;;;;;18.12;55.93;101219.22;4988680;28;20026;-62
2022/05/16 06:50:41;;;;;;;10.75;7.18;;;;;;;18.17;55.78;101211.66;4971198;28;20405;-65
2022/05/16 06:53:11;;;;;;;11.50;7.32;;;;;;;18.20;56.13;101227.09;4988123;28;20037;-62
2022/05/16 06:55:36;;;;;;;13.07;7.70;;;;;;;18.21;56.37;101218.25;4988826;28;20027;-61
2022/05/16 06:58:01;;;;;;;14.02;7.35;;;;;;;18.26;56.21;101221.19;4983598;28;20038;-61
2022/05/16 07:00:27;;;;;;;11.20;7.00;;;;;;;18.27;56.49;101228.06;4983909;28;20066;-62
2022/05/16 07:02:53;;;;;;;11.02;7.60;;;;;;;18.31;56.51;101229.41;4970455;28;20435;-61
2022/05/16 07:05:18;;;;;;;11.35;7.63;;;;;;;18.38;56.45;101230.38;4988001;28;20032;-61
2022/05/16 07:07:44;;;;;;;12.60;7.68;;;;;;;18.46;55.38;101227.72;4988845;28;20069;-64
2022/05/16 07:10:09;;;;;;;10.93;7.35;;;;;;;18.57;55.30;101230.00;4988020;28;20117;-62
2022/05/16 07:12:35;;;;;;;11.18;6.88;;;;;;;18.70;54.96;101224.28;4976943;28;20383;-61
2022/05/16 07:15:00;;;;;;;13.10;6.97;;;;;;;18.82;54.80;101229.97;4965912;28;20125;-61
2022/05/16 07:17:26;;;;;;;15.63;6.80;;;;;;;18.98;54.75;101231.72;4973660;28;20094;-61
2022/05/16 07:19:51;;;;;;;8.68;6.28;;;;;;;19.03;54.45;101235.47;4969672;28;20018;-61
2022/05/16 07:22:22;;;;;;;11.75;7.10;;;;;;;19.13;54.41;101239.72;4983057;28;20465;-61
2022/05/16 07:24:48;;;;;;;10.55;6.70;;;;;;;19.13;54.50;101223.94;4988071;28;20030;-64
2022/05/16 07:29:57;;;;;;;11.63;6.72;;;;;;;19.31;54.20;101241.09;4987892;28;20037;-62
2022/05/16 07:32:23;;;;;;;9.65;6.93;;;;;;;19.40;54.19;101252.41;4985503;28;20022;-64
2022/05/16 07:34:48;;;;;;;10.32;7.20;;;;;;;19.41;53.67;101238.28;4988071;28;20093;-61
2022/05/16 07:37:14;;;;;;;13.25;7.80;;;;;;;19.54;53.97;101243.78;4987126;28;20030;-61
2022/05/16 07:39:40;;;;;;;12.63;7.28;;;;;;;19.61;53.92;101250.03;4988112;28;20030;-61
2022/05/16 07:42:08;;;;;;;13.00;7.60;;;;;;;19.62;54.37;101250.84;4987460;28;20379;-61
2022/05/16 07:44:35;;;;;;;14.50;7.05;;;;;;;19.75;54.16;101260.78;4980745;28;20034;-61
2022/05/16 07:47:00;;;;;;;15.27;8.07;;;;;;;19.84;54.39;101251.84;4987582;28;20030;-61
2022/05/16 07:49:26;;;;;;;10.10;7.50;;;;;;;19.89;53.45;101252.94;4986947;28;20049;-61
2022/05/16 07:51:51;;;;;;;11.88;7.00;;;;;;;20.01;53.96;101249.91;4986821;28;20186;-62
2022/05/16 07:54:17;;;;;;;10.60;6.60;;;;;;;20.05;53.64;101241.47;4987220;28;20051;-61
2022/05/16 07:56:42;;;;;;;12.85;7.68;;;;;;;20.11;53.16;101251.31;4987647;28;20077;-61
2022/05/16 07:59:09;;;;;;;11.50;6.63;;;;;;;20.24;53.40;101263.03;4987497;28;20028;-64
2022/05/16 08:01:36;;;;;;;11.25;6.78;;;;;;;20.33;54.12;101254.91;4986677;28;20243;-61
2022/05/16 08:04:02;;;;;;;11.10;6.80;;;;;;;20.37;54.42;101255.38;4986759;28;20034;-63
2022/05/16 08:06:27;;;;;;;10.00;6.70;;;;;;;20.43;54.24;101259.94;4987204;28;20241;-63
2022/05/16 08:11:39;;;;;;;10.48;7.20;;;;;;;20.49;53.39;101264.50;4987059;28;20057;-61
2022/05/16 08:14:05;;;;;;;14.07;7.43;;;;;;;20.61;53.24;101284.16;4993818;28;20029;-62
2022/05/16 08:16:30;;;;;;;10.32;6.95;;;;;;;20.59;53.79;101280.91;5006637;28;20022;-61
2022/05/16 08:18:55;;;;;;;12.02;6.60;;;;;;;20.72;53.86;101287.34;4987696;28;20049;-61
2022/05/16 08:21:21;;;;;;;11.10;6.68;;;;;;;20.68;54.27;101278.97;4986157;28;20117;-63
2022/05/16 08:23:46;;;;;;;340.98;39.72;;;;;;;20.82;54.88;101293.19;4987004;28;20030;-62
2022/05/16 08:26:11;;;;;;;69.18;12.55;;;;;;;20.85;53.24;101295.44;4986741;28;20025;-61
2022/05/16 08:28:38;;;;;;;9.73;5.30;;;;;;;20.90;52.97;101296.53;4986684;28;20046;-62
2022/05/16 08:31:04;;;;;;;10.45;4.43;;;;;;;20.94;52.68;101294.38;4986321;28;20065;-66
2022/05/16 08:33:29;;;;;;;10.20;4.20;;;;;;;20.99;52.78;101292.00;4986272;28;20046;-61
2022/05/16 08:41:28;;;;;;;30.77;6.55;;;;;;;20.97;53.99;101299.28;4969725;28;20054;-61
2022/05/16 08:44:23;;;;;;;41.60;8.90;;;;;;;21.05;52.67;101296.56;4967482;28;20026;-61
2022/05/16 08:47:09;;;;;;;22.25;5.72;;;;;;;21.06;54.02;101308.75;4961998;28;20043;-61
2022/05/16 08:49:35;;;;;;;193.75;26.55;;;;;;;21.13;53.39;101298.28;4978928;28;20502;-62
2022/05/16 08:52:17;;;;;;;208.77;26.30;;;;;;;21.17;53.11;101300.38;4978633;28;20038;-63
2022/05/16 08:54:51;;;;;;;36.80;8.70;;;;;;;21.17;52.80;101295.09;4967807;28;20063;-62
2022/05/16 08:57:33;;;;;;;66.95;11.45;;;;;;;21.21;53.01;101301.63;4966937;28;20042;-61
2022/05/16 09:00:11;;;;;;;12.25;4.68;;;;;;;21.27;52.98;101304.53;4967381;28;20030;-61
2022/05/16 09:02:42;;;;;;;12.10;4.53;;;;;;;21.42;53.52;101308.81;4986403;28;20374;-61
2022/05/16 09:05:15;;;;;;;10.70;4.55;;;;;;;21.52;52.61;101319.09;4968612;28;20041;-64
2022/05/16 09:07:46;;;;;;;12.07;5.13;;;;;;;21.68;51.94;101318.88;4987019;28;20092;-61
2022/05/16 09:10:19;;;;;;;10.07;4.50;;;;;;;21.94;52.52;101318.34;4985252;28;20026;-61
2022/05/16 09:13:15;;;;;;;10.38;5.00;;;;;;;22.02;51.77;101312.09;4967875;28;20046;-61
2022/05/16 09:15:51;;;;;;;7.78;4.93;;;;;;;22.22;51.47;101307.88;4969184;28;20513;-61
2022/05/16 09:18:39;;;;;;;8.65;4.57;;;;;;;22.35;51.39;101304.50;4986124;28;20076;-61
2022/05/16 09:21:19;;;;;;;8.48;4.90;;;;;;;22.44;51.04;101307.84;4983885;28;20034;-62
2022/05/16 09:24:09;;;;;;;8.77;4.85;;;;;;;22.61;51.47;101303.91;4985949;28;20522;-62
2022/05/16 09:26:47;;;;;;;9.15;4.80;;;;;;;22.85;50.39;101304.47;4971191;28;20034;-61
2022/05/16 09:29:18;;;;;;;;;;;;;;;22.91;51.26;101298.44;4986082;28;20537;-66
2022/05/16 09:31:48;;;;;;;13.18;5.65;;;;;;;23.00;49.92;101282.22;4969880;28;19929;-63
2022/05/16 09:34:14;;;;;;;10.38;5.47;;;;;;;23.12;51.41;101287.78;4968105;28;20165;-64
2022/05/16 09:36:45;;;;;;;13.02;5.70;;;;;;;23.12;48.93;101285.13;4985905;28;20037;-62
2022/05/16 09:39:12;;;;;;;108.03;16.20;;;;;;;23.28;48.73;101284.78;4985992;28;20038;-62
2022/05/16 09:41:45;;;;;;;49.35;9.93;;;;;;;23.40;48.79;101278.91;4986055;28;20034;-61
2022/05/16 09:44:14;;;;;;;70.07;12.00;;;;;;;23.64;48.52;101278.41;4985113;28;20467;-62
2022/05/16 09:46:43;;;;;;;13.38;5.72;;;;;;;23.73;48.28;101274.53;4974367;28;20363;-64
2022/05/16 09:49:18;;;;;;;12.07;5.30;;;;;;;23.86;47.42;101281.72;4977964;28;20030;-61
2022/05/16 09:51:48;;;;;;;9.23;4.30;;;;;;;23.93;48.09;101271.94;4981181;28;20033;-67
2022/05/16 09:54:18;;;;;;;8.68;4.40;;;;;;;24.09;47.34;101276.03;4978225;28;20054;-66
2022/05/16 09:57:12;;;;;;;7.28;4.68;;;;;;;24.26;47.82;101282.56;4978746;28;20138;-61
2022/05/16 10:00:13;;;;;;;8.63;5.20;;;;;;;24.32;47.43;101292.34;4982856;28;20491;-62
2022/05/16 10:02:39;;;;;;;8.90;5.20;;;;;;;24.43;48.35;101298.06;4979694;28;20033;-62
2022/05/16 10:05:19;;;;;;;8.55;4.85;;;;;;;24.54;47.20;101305.41;4983370;28;20034;-65
2022/05/16 10:07:49;;;;;;;8.98;4.47;;;;;;;24.71;45.99;101311.91;4985030;28;20030;-66
2022/05/16 10:10:19;;;;;;;9.25;4.72;;;;;;;24.75;46.64;101313.13;4980945;28;20034;-62
2022/05/16 10:12:45;;;;;;;11.90;5.72;;;;;;;24.88;45.43;101313.09;4972818;28;20022;-64
2022/05/16 10:15:12;;;;;;;9.48;5.10;;;;;;;24.82;44.93;101313.94;5001973;28;20052;-62
2022/05/16 10:17:40;;;;;;;8.43;4.78;;;;;;;25.18;45.07;101317.97;4993853;28;20028;-62
2022/05/16 10:20:21;;;;;;;8.02;4.65;;;;;;;25.47;46.54;101331.75;4989600;28;20030;-62
2022/05/16 10:22:49;;;;;;;9.95;4.20;;;;;;;25.60;45.54;101326.38;4988644;28;20053;-62
2022/05/16 10:25:19;;;;;;;8.02;4.28;;;;;;;25.46;44.62;101338.88;4987693;28;20498;-62
2022/05/16 10:27:48;;;;;;;8.88;4.68;;;;;;;25.33;46.17;101331.78;4989877;28;20534;-64
2022/05/16 10:30:22;;;;;;;9.90;4.10;;;;;;;25.39;45.53;101341.56;4989150;28;20045;-63
2022/05/16 10:36:05;;;;;;;8.00;4.00;;;;;;;25.32;45.42;101340.78;4983831;28;20553;-63
2022/05/16 10:38:35;;;;;;;8.35;4.38;;;;;;;25.22;45.34;101337.75;4981099;28;20030;-64
2022/05/16 10:41:04;;;;;;;9.98;5.03;;;;;;;25.13;44.90;101333.72;4982436;28;20132;-67
2022/05/16 10:43:53;;;;;;;10.43;4.80;;;;;;;25.05;45.56;101337.38;4978242;28;20061;-62
2022/05/16 10:46:24;;;;;;;7.88;3.80;;;;;;;25.11;48.30;101338.38;4968215;28;20030;-64
2022/05/16 10:49:10;;;;;;;9.00;4.20;;;;;;;25.22;46.57;101340.41;4978808;28;20030;-68
2022/05/16 10:52:10;;;;;;;7.97;3.85;;;;;;;25.23;48.04;101342.03;4988803;28;20022;-61
2022/05/16 10:54:36;;;;;;;11.93;4.88;;;;;;;25.24;46.38;101337.56;4974380;28;20077;-67
2022/05/16 10:57:33;;;;;;;8.00;3.92;;;;;;;25.43;47.68;101348.09;4986310;28;20468;-62
2022/05/16 11:00:07;;;;;;;8.68;3.70;;;;;;;25.13;48.00;101337.19;4987955;28;20030;-62
2022/05/16 11:02:45;;;;;;;10.38;3.40;;;;;;;25.18;47.73;101365.75;4985973;28;20141;-63
2022/05/16 11:05:39;;;;;;;8.30;3.20;;;;;;;25.09;47.97;101374.94;4988604;28;20068;-63
2022/05/16 11:08:13;;;;;;;12.93;3.95;;;;;;;24.78;48.32;101371.09;4986606;28;20969;-65
2022/05/16 11:10:58;;;;;;;7.30;3.60;;;;;;;24.67;49.03;101382.34;4989247;28;20042;-62
2022/05/16 11:13:42;;;;;;;25.83;5.88;;;;;;;24.53;49.30;101384.16;4988751;28;20031;-63
2022/05/16 11:16:32;;;;;;;8.05;3.88;;;;;;;24.47;49.41;101381.50;4988517;28;20095;-62
2022/05/16 11:19:19;;;;;;;8.65;3.75;;;;;;;24.40;49.60;101393.94;4988508;28;20022;-62
2022/05/16 11:22:00;;;;;;;11.13;4.00;;;;;;;24.29;50.92;101398.78;4988503;28;20238;-62
2022/05/16 11:24:44;;;;;;;10.18;4.30;;;;;;;23.98;55.22;101411.78;4988430;28;20046;-63
2022/05/16 11:27:38;;;;;;;11.25;5.00;;;;;;;23.61;56.26;101420.94;4988303;28;20031;-61
2022/05/16 11:30:03;;;;;;;11.07;4.82;;;;;;;23.53;58.10;101414.00;4977036;28;20042;-63
2022/05/16 11:33:00;;;;;;;9.45;4.35;;;;;;;23.30;58.24;101423.03;4987943;28;20031;-62
2022/05/16 11:35:40;;;;;;;10.45;4.85;;;;;;;22.94;60.22;101425.00;4969932;28;20072;-65
2022/05/16 11:38:14;;;;;;;10.10;5.03;;;;;;;22.77;61.61;101441.13;4987706;28;20127;-63
2022/05/16 11:41:19;;;;;;;9.45;5.40;;;;;;;22.74;61.88;101448.63;4988195;28;20509;-62
2022/05/16 11:43:48;;;;;;;9.65;5.85;;;;;;;22.34;64.83;101450.06;4918085;28;20112;-62
2022/05/16 11:46:23;;;;;;;11.20;6.32;;;;;;;22.11;65.69;101445.75;4979880;28;20467;-61
2022/05/16 11:49:26;;;;;;;10.82;6.93;;;;;;;22.34;64.29;101450.06;4974160;28;20379;-62
2022/05/16 11:52:29;;;;;;;9.15;7.25;;;;;;;22.40;64.02;101450.13;4955134;28;20034;-62
2022/05/16 11:55:00;;;;;;;10.38;7.70;;;;;;;22.07;65.88;101449.72;4976519;28;20059;-61
2022/05/16 12:00:33;;;;;;;10.60;7.05;;;;;;;22.35;66.52;101462.28;4973350;28;20060;-63
2022/05/16 12:03:07;;;;;;;10.00;6.70;;;;;;;22.63;64.99;101457.88;4980158;28;20061;-62